Time;durP1;ratioP1;P1;durP2;ratioP2;P2;SDS_P1;SDS_P2;PMS_P1;PMS_P2;Temp;Humidity;BMP_temperature;BMP_pressure;BME280_temperature;BME280_humidity;BME280_pressure;Samples;Min_cycle;Max_cycle;Signal;HPM_P1;HPM_P2
2021/12/15 00:02:19;;;;;;;;;;;7.80;99.90;;;;;;4946635;28;19914;-85
2021/12/15 00:04:45;;;;;;;;;;;7.80;99.90;;;;;;4951605;28;19918;-85
2021/12/15 00:07:11;;;;;;;;;;;7.70;99.90;;;;;;4963389;28;19914;-85
2021/12/15 00:09:37;;;;;;;;;;;7.80;99.90;;;;;;4963753;28;19981;-85
2021/12/15 00:12:04;;;;;;;;;;;7.70;99.90;;;;;;4944296;28;19925;-85
2021/12/15 00:14:30;;;;;;;;;;;7.70;99.90;;;;;;4964028;28;19948;-85
2021/12/15 00:16:56;;;;;;;;;;;7.70;99.90;;;;;;4965055;28;19922;-85
2021/12/15 00:19:21;;;;;;;;;;;7.70;99.90;;;;;;4964783;28;20838;-85
2021/12/15 00:21:47;;;;;;;;;;;7.70;99.90;;;;;;4945492;28;20374;-84
2021/12/15 00:24:12;;;;;;;;;;;7.80;99.90;;;;;;4964833;28;20358;-85
2021/12/15 00:26:38;;;;;;;;;;;7.70;99.90;;;;;;4951490;28;19914;-84
2021/12/15 00:29:05;;;;;;;;;;;7.70;99.90;;;;;;4965384;28;20313;-84
2021/12/15 00:31:32;;;;;;;;;;;7.70;99.90;;;;;;4964275;28;19964;-84
2021/12/15 00:33:59;;;;;;;;;;;7.70;99.90;;;;;;4934634;28;19949;-85
2021/12/15 00:36:24;;;;;;;;;;;7.70;99.90;;;;;;4927334;29;19926;-85
2021/12/15 00:38:50;;;;;;;;;;;7.70;99.90;;;;;;4945287;29;19989;-84
2021/12/15 00:41:16;;;;;;;;;;;7.70;99.90;;;;;;4945276;29;20491;-86
2021/12/15 00:43:42;;;;;;;;;;;7.70;99.90;;;;;;4924234;29;20407;-86
2021/12/15 00:46:08;;;;;;;;;;;7.70;99.90;;;;;;4925674;29;20228;-85
2021/12/15 00:48:34;;;;;;;;;;;7.70;99.90;;;;;;4946139;28;19941;-85
2021/12/15 00:51:00;;;;;;;;;;;7.70;99.90;;;;;;4945213;29;19918;-86
2021/12/15 00:53:25;;;;;;;;;;;7.70;99.90;;;;;;4928177;29;20005;-86
2021/12/15 00:55:51;;;;;;;;;;;7.70;99.90;;;;;;4932345;29;19945;-86
2021/12/15 00:58:17;;;;;;;;;;;7.80;99.90;;;;;;4926551;29;20294;-85
2021/12/15 01:00:46;;;;;;;;;;;7.80;99.90;;;;;;4945977;29;19914;-86
2021/12/15 01:03:12;;;;;;;;;;;7.70;99.90;;;;;;4922865;29;19915;-86
2021/12/15 01:05:40;;;;;;;;;;;7.70;99.90;;;;;;4923843;29;20713;-86
2021/12/15 01:08:08;;;;;;;;;;;7.70;99.90;;;;;;4927210;29;20032;-85
2021/12/15 01:10:53;;;;;;;;;;;7.80;99.90;;;;;;4924355;29;19924;-85
2021/12/15 01:21:31;;;;;;;;;;;7.80;99.90;;;;;;4944158;29;20057;-85
2021/12/15 01:23:57;;;;;;;;;;;7.80;99.90;;;;;;4943613;28;20588;-86
2021/12/15 01:26:25;;;;;;;;;;;7.80;99.90;;;;;;4926768;29;19921;-85
2021/12/15 01:28:51;;;;;;;;;;;7.80;99.90;;;;;;4924463;29;19952;-86
2021/12/15 01:31:17;;;;;;;;;;;7.80;99.90;;;;;;4923004;29;19937;-85
2021/12/15 01:33:42;;;;;;;;;;;7.70;99.90;;;;;;4949537;28;20024;-85
2021/12/15 01:36:09;;;;;;;;;;;7.70;99.90;;;;;;4962589;28;20515;-85
2021/12/15 01:38:35;;;;;;;;;;;7.80;99.90;;;;;;4962233;28;20599;-85
2021/12/15 01:41:02;;;;;;;;;;;7.80;99.90;;;;;;4961621;28;19918;-85
2021/12/15 01:49:06;;;;;;;;;;;7.80;99.90;;;;;;4962048;28;19941;-85
2021/12/15 01:51:32;;;;;;;;;;;7.80;99.90;;;;;;4943076;28;20367;-85
2021/12/15 01:53:58;;;;;;;;;;;7.80;99.90;;;;;;4950529;28;19919;-85
2021/12/15 01:56:24;;;;;;;;;;;7.80;99.90;;;;;;4962639;28;19961;-85
2021/12/15 01:58:50;;;;;;;;;;;7.80;99.90;;;;;;4948131;28;20005;-85
2021/12/15 02:01:15;;;;;;;;;;;7.80;99.90;;;;;;4961418;28;19949;-86
2021/12/15 02:03:41;;;;;;;;;;;7.70;99.90;;;;;;4951016;28;19918;-85
2021/12/15 02:06:08;;;;;;;;;;;7.70;99.90;;;;;;4961775;28;20021;-85
2021/12/15 02:08:33;;;;;;;;;;;7.80;99.90;;;;;;4960606;28;20003;-85
2021/12/15 02:10:59;;;;;;;;;;;7.80;99.90;;;;;;4947046;28;20061;-85
2021/12/15 02:13:25;;;;;;;;;;;7.80;99.90;;;;;;4942116;28;19922;-85
2021/12/15 02:15:53;;;;;;;;;;;7.80;99.90;;;;;;4961752;28;19922;-85
2021/12/15 02:18:20;;;;;;;;;;;7.80;99.90;;;;;;4960803;28;19976;-85
2021/12/15 02:20:47;;;;;;;;;;;7.80;99.90;;;;;;4961283;28;19945;-85
2021/12/15 02:23:15;;;;;;;;;;;7.70;99.90;;;;;;4962897;28;19925;-86
2021/12/15 02:25:40;;;;;;;;;;;7.80;99.90;;;;;;4945106;28;20386;-86
2021/12/15 02:28:07;;;;;;;;;;;7.80;99.90;;;;;;4962014;28;19925;-85
2021/12/15 02:38:44;;;;;;;;;;;7.80;99.90;;;;;;4962003;28;20338;-86
2021/12/15 02:41:19;;;;;;;;;;;7.80;99.90;;;;;;4946678;28;19918;-85
2021/12/15 02:43:57;;;;;;;;;;;7.80;99.90;;;;;;4963230;28;19914;-85
2021/12/15 02:46:23;;;;;;;;;;;7.80;99.90;;;;;;4961124;28;19926;-85
2021/12/15 02:48:49;;;;;;;;;;;7.80;99.90;;;;;;4961783;28;19914;-85
2021/12/15 02:51:16;;;;;;;;;;;7.80;99.90;;;;;;4962819;28;19918;-84
2021/12/15 02:53:41;;;;;;;;;;;7.80;99.90;;;;;;4946676;28;20393;-85
2021/12/15 02:56:07;;;;;;;;;;;7.80;99.90;;;;;;4962430;28;19918;-85
2021/12/15 02:58:36;;;;;;;;;;;7.80;99.90;;;;;;4944101;28;19929;-86
2021/12/15 03:01:10;;;;;;;;;;;7.80;99.90;;;;;;4947153;28;20329;-85
2021/12/15 03:04:05;;;;;;;;;;;7.80;99.90;;;;;;4946776;28;20422;-85
2021/12/15 03:17:06;;;;;;;;;;;7.80;99.90;;;;;;4966358;28;19930;-85
2021/12/15 03:19:32;;;;;;;;;;;7.80;99.90;;;;;;4967764;28;20473;-85
2021/12/15 03:21:57;;;;;;;;;;;7.80;99.90;;;;;;4948956;28;19953;-85
2021/12/15 03:24:24;;;;;;;;;;;7.80;99.90;;;;;;4963494;28;19918;-85
2021/12/15 03:26:58;;;;;;;;;;;7.80;99.90;;;;;;4940397;28;20374;-85
2021/12/15 03:37:26;;;;;;;;;;;7.80;99.90;;;;;;4965556;28;19932;-84
2021/12/15 03:39:54;;;;;;;;;;;7.90;99.90;;;;;;4947356;28;20006;-86
2021/12/15 03:42:23;;;;;;;;;;;7.80;99.90;;;;;;4963962;28;19929;-85
2021/12/15 03:44:49;;;;;;;;;;;7.80;99.90;;;;;;4943168;28;19933;-85
2021/12/15 03:47:19;;;;;;;;;;;7.80;99.90;;;;;;4946372;28;20294;-85
2021/12/15 03:49:44;;;;;;;;;;;7.80;99.90;;;;;;4945891;28;19976;-85
2021/12/15 03:52:11;;;;;;;;;;;7.80;99.90;;;;;;4947826;28;19945;-85
2021/12/15 03:54:36;;;;;;;;;;;7.90;99.90;;;;;;4949922;28;19921;-86
2021/12/15 03:57:02;;;;;;;;;;;7.90;99.90;;;;;;4963880;28;20211;-85
2021/12/15 03:59:28;;;;;;;;;;;7.90;99.90;;;;;;4945210;28;19933;-85
2021/12/15 04:01:55;;;;;;;;;;;7.90;99.90;;;;;;4959212;28;20404;-85
2021/12/15 04:04:21;;;;;;;;;;;7.80;99.90;;;;;;4962636;28;20017;-86
2021/12/15 04:06:46;;;;;;;;;;;7.80;99.90;;;;;;4942049;28;19926;-85
2021/12/15 04:09:13;;;;;;;;;;;7.80;99.90;;;;;;4945897;28;19985;-85
2021/12/15 04:11:39;;;;;;;;;;;7.80;99.90;;;;;;4944583;28;19922;-85
2021/12/15 04:14:08;;;;;;;;;;;7.90;99.90;;;;;;4963180;28;20360;-86
2021/12/15 04:19:01;;;;;;;;;;;7.90;99.90;;;;;;4964584;28;20701;-86
2021/12/15 04:21:27;;;;;;;;;;;7.80;99.90;;;;;;4963701;28;20543;-85
2021/12/15 04:23:54;;;;;;;;;;;7.80;99.90;;;;;;4962174;28;19949;-86
2021/12/15 04:26:20;;;;;;;;;;;7.90;99.90;;;;;;4944424;28;19918;-86
2021/12/15 04:28:46;;;;;;;;;;;7.90;99.90;;;;;;4944367;28;19922;-85
2021/12/15 04:31:14;;;;;;;;;;;7.90;99.90;;;;;;4946464;28;19933;-86
2021/12/15 04:33:55;;;;;;;;;;;7.90;99.90;;;;;;4964134;28;19937;-86
2021/12/15 04:36:25;;;;;;;;;;;7.80;99.90;;;;;;4947428;28;19997;-86
2021/12/15 04:38:51;;;;;;;;;;;7.80;99.90;;;;;;4946228;28;19929;-85
2021/12/15 04:41:18;;;;;;;;;;;7.90;99.90;;;;;;4963721;28;19918;-85
2021/12/15 04:43:44;;;;;;;;;;;7.90;99.90;;;;;;4947433;28;20398;-85
2021/12/15 04:46:10;;;;;;;;;;;7.80;99.90;;;;;;4949826;28;19921;-85
2021/12/15 04:48:37;;;;;;;;;;;7.80;99.90;;;;;;4943424;28;19933;-85
2021/12/15 04:51:03;;;;;;;;;;;7.80;99.90;;;;;;4945605;28;19981;-85
2021/12/15 04:53:29;;;;;;;;;;;7.90;99.90;;;;;;4944585;28;19914;-86
2021/12/15 04:55:55;;;;;;;;;;;7.80;99.90;;;;;;4952019;28;20399;-86
2021/12/15 04:58:20;;;;;;;;;;;7.90;99.90;;;;;;4943472;28;20274;-85
2021/12/15 05:00:49;;;;;;;;;;;7.90;99.90;;;;;;4964523;28;20285;-86
2021/12/15 05:03:14;;;;;;;;;;;7.80;99.90;;;;;;4963363;28;20515;-86
2021/12/15 05:05:40;;;;;;;;;;;7.90;99.90;;;;;;4948125;28;19919;-86
2021/12/15 05:08:06;;;;;;;;;;;7.90;99.90;;;;;;4947679;28;20632;-86
2021/12/15 05:10:32;;;;;;;;;;;7.90;99.90;;;;;;4963868;28;19954;-87
2021/12/15 05:12:58;;;;;;;;;;;7.90;99.90;;;;;;4963007;28;19914;-85
2021/12/15 05:15:24;;;;;;;;;;;7.90;99.90;;;;;;4962082;28;19926;-85
2021/12/15 05:17:50;;;;;;;;;;;8.00;99.90;;;;;;4946808;28;20349;-85
2021/12/15 05:20:15;;;;;;;;;;;8.00;99.90;;;;;;4941947;28;19925;-86
2021/12/15 05:22:41;;;;;;;;;;;7.90;99.90;;;;;;4947279;28;20295;-86
2021/12/15 05:25:07;;;;;;;;;;;7.90;99.90;;;;;;4960491;28;19980;-86
2021/12/15 05:27:33;;;;;;;;;;;7.90;99.90;;;;;;4941277;28;19957;-86
2021/12/15 05:29:59;;;;;;;;;;;7.90;99.90;;;;;;4961398;28;19926;-86
2021/12/15 05:32:24;;;;;;;;;;;7.90;99.90;;;;;;4940649;28;19918;-86
2021/12/15 05:34:52;;;;;;;;;;;7.90;99.90;;;;;;4929001;28;20428;-86
2021/12/15 05:37:19;;;;;;;;;;;7.90;99.90;;;;;;4919499;28;19922;-86
2021/12/15 05:39:45;;;;;;;;;;;7.90;99.90;;;;;;4923529;29;19922;-86
2021/12/15 05:42:10;;;;;;;;;;;7.90;99.90;;;;;;4941708;28;20267;-84
2021/12/15 05:44:36;;;;;;;;;;;7.90;99.90;;;;;;4942481;28;19923;-85
2021/12/15 05:47:05;;;;;;;;;;;7.90;99.90;;;;;;4924186;29;20516;-85
2021/12/15 05:49:31;;;;;;;;;;;7.90;99.90;;;;;;4940846;28;20357;-85
2021/12/15 05:51:57;;;;;;;;;;;7.90;99.90;;;;;;4941861;29;19919;-86
2021/12/15 05:54:23;;;;;;;;;;;7.90;99.90;;;;;;4925481;29;19998;-85
2021/12/15 05:56:49;;;;;;;;;;;7.90;99.90;;;;;;4923386;29;20608;-85
2021/12/15 05:59:15;;;;;;;;;;;7.90;99.90;;;;;;4941574;28;19926;-84
2021/12/15 06:01:41;;;;;;;;;;;7.90;99.90;;;;;;4940917;28;20294;-86
2021/12/15 06:04:08;;;;;;;;;;;7.90;99.90;;;;;;4924379;28;20289;-85
2021/12/15 06:06:34;;;;;;;;;;;7.90;99.90;;;;;;4917552;29;20436;-85
2021/12/15 06:09:01;;;;;;;;;;;7.90;99.90;;;;;;4922107;29;19918;-84
2021/12/15 06:11:27;;;;;;;;;;;7.90;99.90;;;;;;4924188;29;20426;-85
2021/12/15 06:13:53;;;;;;;;;;;7.80;99.90;;;;;;4942903;28;19915;-85
2021/12/15 06:16:21;;;;;;;;;;;7.80;99.90;;;;;;4941070;28;19919;-85
2021/12/15 06:18:48;;;;;;;;;;;7.80;99.90;;;;;;4942569;28;19954;-84
2021/12/15 06:21:14;;;;;;;;;;;7.80;99.90;;;;;;4921533;29;20354;-85
2021/12/15 06:23:39;;;;;;;;;;;7.80;99.90;;;;;;4932067;29;19977;-84
2021/12/15 06:26:06;;;;;;;;;;;7.80;99.90;;;;;;4923294;29;19954;-84
2021/12/15 06:28:32;;;;;;;;;;;7.80;99.90;;;;;;4942661;29;19926;-85
2021/12/15 06:30:58;;;;;;;;;;;7.80;99.90;;;;;;4925392;29;19925;-86
2021/12/15 06:33:27;;;;;;;;;;;7.80;99.90;;;;;;4920578;28;19931;-85
2021/12/15 06:35:57;;;;;;;;;;;7.90;99.90;;;;;;4922889;29;19915;-85
2021/12/15 06:38:24;;;;;;;;;;;7.90;99.90;;;;;;4922969;29;20045;-86
2021/12/15 06:40:49;;;;;;;;;;;7.90;99.90;;;;;;4925620;29;19929;-86
2021/12/15 06:43:15;;;;;;;;;;;7.90;99.90;;;;;;4926982;28;19930;-86
2021/12/15 06:45:57;;;;;;;;;;;7.90;99.90;;;;;;4925062;29;19942;-85
2021/12/15 06:59:20;;;;;;;;;;;7.80;99.90;;;;;;4945983;29;20017;-85
2021/12/15 07:01:48;;;;;;;;;;;7.80;99.90;;;;;;4943689;28;20017;-85
2021/12/15 07:04:16;;;;;;;;;;;7.80;99.90;;;;;;4945235;29;19918;-85
2021/12/15 07:06:41;;;;;;;;;;;7.80;99.90;;;;;;4924176;29;19925;-85
2021/12/15 07:09:07;;;;;;;;;;;7.80;99.90;;;;;;4932287;29;19918;-85
2021/12/15 07:11:32;;;;;;;;;;;7.80;99.90;;;;;;4927538;29;19923;-85
2021/12/15 07:13:58;;;;;;;;;;;7.80;99.90;;;;;;4945257;28;20329;-85
2021/12/15 07:16:25;;;;;;;;;;;7.80;99.90;;;;;;4928615;29;19914;-85
2021/12/15 07:19:05;;;;;;;;;;;7.80;99.90;;;;;;4925126;29;19926;-85
2021/12/15 07:21:35;;;;;;;;;;;7.80;99.90;;;;;;4946104;28;20382;-85
2021/12/15 07:24:01;;;;;;;;;;;7.90;99.90;;;;;;4928291;29;19929;-84
2021/12/15 07:26:27;;;;;;;;;;;7.90;99.90;;;;;;4928169;29;20651;-85
2021/12/15 07:28:52;;;;;;;;;;;7.90;99.90;;;;;;4925411;29;19960;-85
2021/12/15 07:31:18;;;;;;;;;;;7.90;99.90;;;;;;4943089;29;20005;-84
2021/12/15 07:33:44;;;;;;;;;;;7.90;99.90;;;;;;4925848;29;19974;-85
2021/12/15 07:36:10;;;;;;;;;;;7.90;99.90;;;;;;4945850;29;19923;-85
2021/12/15 07:38:41;;;;;;;;;;;7.90;99.90;;;;;;4928031;29;19926;-84
2021/12/15 07:41:24;;;;;;;;;;;7.90;99.90;;;;;;4931326;29;20559;-85
2021/12/15 07:43:50;;;;;;;;;;;7.90;99.90;;;;;;4925606;29;19918;-85
2021/12/15 07:46:16;;;;;;;;;;;7.90;99.90;;;;;;4944045;28;19923;-85
2021/12/15 07:48:41;;;;;;;;;;;8.00;99.90;;;;;;4943972;28;19923;-85
2021/12/15 07:51:08;;;;;;;;;;;8.00;99.90;;;;;;4935110;29;20082;-85
2021/12/15 07:53:34;;;;;;;;;;;8.00;99.90;;;;;;4943961;28;19915;-85
2021/12/15 07:55:59;;;;;;;;;;;8.00;99.90;;;;;;4944529;28;20423;-85
2021/12/15 07:58:26;;;;;;;;;;;8.00;99.90;;;;;;4932006;29;25326;-84
2021/12/15 08:00:52;;;;;;;;;;;8.00;99.90;;;;;;4941580;28;19941;-86
2021/12/15 08:03:18;;;;;;;;;;;8.00;99.90;;;;;;4924277;29;20235;-84
2021/12/15 08:05:48;;;;;;;;;;;8.00;99.90;;;;;;4923887;29;19926;-83
2021/12/15 08:08:14;;;;;;;;;;;8.00;99.90;;;;;;4925548;29;20004;-84
2021/12/15 08:10:41;;;;;;;;;;;8.00;99.90;;;;;;4925378;29;19947;-85
2021/12/15 08:13:07;;;;;;;;;;;8.10;99.90;;;;;;4943530;28;20564;-84
2021/12/15 08:15:32;;;;;;;;;;;8.10;99.90;;;;;;4914493;29;19969;-82
2021/12/15 08:17:58;;;;;;;;;;;8.10;99.90;;;;;;4925160;29;20371;-83
2021/12/15 08:20:26;;;;;;;;;;;8.10;99.90;;;;;;4924591;29;20203;-82
2021/12/15 08:22:52;;;;;;;;;;;8.10;99.90;;;;;;4930085;29;19918;-83
2021/12/15 08:25:18;;;;;;;;;;;8.10;99.90;;;;;;4921643;29;20615;-82
2021/12/15 08:27:44;;;;;;;;;;;8.20;99.90;;;;;;4923404;29;20015;-83
2021/12/15 08:30:11;;;;;;;;;;;8.20;99.90;;;;;;4922818;29;19990;-83
2021/12/15 08:32:38;;;;;;;;;;;8.20;99.90;;;;;;4941391;28;19918;-82
2021/12/15 08:35:04;;;;;;;;;;;8.20;99.90;;;;;;4924021;29;19930;-82
2021/12/15 08:37:30;;;;;;;;;;;8.30;99.90;;;;;;4922859;29;19919;-82
2021/12/15 08:39:55;;;;;;;;;;;8.30;99.90;;;;;;4943196;29;20989;-83
2021/12/15 08:42:21;;;;;;;;;;;8.30;99.90;;;;;;4940807;28;20393;-83
2021/12/15 08:44:47;;;;;;;;;;;8.40;99.90;;;;;;4925355;29;20270;-82
2021/12/15 08:47:13;;;;;;;;;;;8.50;99.90;;;;;;4922056;29;20094;-82
2021/12/15 08:49:39;;;;;;;;;;;8.40;99.90;;;;;;4941324;28;19925;-83
2021/12/15 08:52:05;;;;;;;;;;;8.40;99.90;;;;;;4924990;29;20345;-84
2021/12/15 08:54:31;;;;;;;;;;;8.40;99.90;;;;;;4925595;29;19918;-83
2021/12/15 08:56:56;;;;;;;;;;;8.40;99.90;;;;;;4920673;29;19969;-82
2021/12/15 08:59:22;;;;;;;;;;;8.40;99.90;;;;;;4942430;29;19948;-81
2021/12/15 09:01:48;;;;;;;;;;;8.40;99.90;;;;;;4942001;29;20476;-81
2021/12/15 09:04:14;;;;;;;;;;;8.40;99.90;;;;;;4942757;29;19929;-82
2021/12/15 09:06:41;;;;;;;;;;;8.50;99.90;;;;;;4942043;29;20584;-81
2021/12/15 09:09:07;;;;;;;;;;;8.50;99.90;;;;;;4929291;29;20216;-82
2021/12/15 09:11:33;;;;;;;;;;;8.60;99.90;;;;;;4940817;28;20418;-81
2021/12/15 09:14:00;;;;;;;;;;;8.60;99.90;;;;;;4912560;29;19926;-83
2021/12/15 09:16:27;;;;;;;;;;;8.60;99.90;;;;;;4924289;29;19922;-83
2021/12/15 09:18:53;;;;;;;;;;;8.70;99.90;;;;;;4933535;28;19923;-83
2021/12/15 09:21:21;;;;;;;;;;;8.70;99.90;;;;;;4942937;29;19946;-83
2021/12/15 09:23:47;;;;;;;;;;;8.70;99.90;;;;;;4941905;29;19923;-84
2021/12/15 09:26:12;;;;;;;;;;;8.80;99.90;;;;;;4927797;29;19925;-83
2021/12/15 09:28:39;;;;;;;;;;;8.80;99.90;;;;;;4943165;29;20396;-83
2021/12/15 09:31:05;;;;;;;;;;;8.80;99.90;;;;;;4926760;29;20362;-83
2021/12/15 09:33:32;;;;;;;;;;;8.80;99.90;;;;;;4946911;28;19926;-83
2021/12/15 09:35:58;;;;;;;;;;;8.80;99.90;;;;;;4962369;28;20550;-84
2021/12/15 09:38:24;;;;;;;;;;;8.80;99.90;;;;;;4939954;28;19965;-83
2021/12/15 09:40:54;;;;;;;;;;;8.90;99.90;;;;;;4944122;28;19914;-84
2021/12/15 09:43:20;;;;;;;;;;;8.80;99.90;;;;;;4940253;28;19981;-82
2021/12/15 09:45:55;;;;;;;;;;;8.90;99.90;;;;;;4961307;28;19922;-83
2021/12/15 09:57:06;;;;;;;;;;;9.00;99.90;;;;;;4963618;28;19921;-83
2021/12/15 10:02:34;;;;;;;;;;;8.90;99.90;;;;;;4939465;28;19982;-83
2021/12/15 10:19:20;;;;;;;;;;;9.00;99.90;;;;;;4962291;28;19945;-85
2021/12/15 10:21:57;;;;;;;;;;;9.00;99.90;;;;;;4947257;28;20460;-84
2021/12/15 10:24:27;;;;;;;;;;;9.00;99.90;;;;;;4965306;28;20041;-84
2021/12/15 10:26:57;;;;;;;;;;;9.00;99.90;;;;;;4946776;28;20318;-83
2021/12/15 10:29:23;;;;;;;;;;;9.00;99.90;;;;;;4948854;28;19921;-83
2021/12/15 10:32:03;;;;;;;;;;;9.00;99.90;;;;;;4948832;28;19919;-83
2021/12/15 10:34:29;;;;;;;;;;;9.10;99.90;;;;;;4965256;28;20440;-84
2021/12/15 10:36:55;;;;;;;;;;;9.00;99.90;;;;;;4964340;28;19918;-84
2021/12/15 10:39:22;;;;;;;;;;;9.10;99.90;;;;;;4948804;28;19925;-83
2021/12/15 10:41:51;;;;;;;;;;;9.00;99.90;;;;;;4965526;28;19954;-84
2021/12/15 10:44:21;;;;;;;;;;;9.10;99.90;;;;;;4965713;28;20104;-84
2021/12/15 10:46:50;;;;;;;;;;;9.10;99.90;;;;;;4965522;28;19922;-84
2021/12/15 10:49:17;;;;;;;;;;;9.10;99.90;;;;;;4965164;28;19925;-85
2021/12/15 10:51:59;;;;;;;;;;;9.10;99.90;;;;;;4964431;28;20347;-84
2021/12/15 10:54:33;;;;;;;;;;;9.10;99.90;;;;;;4964990;28;19918;-83
2021/12/15 10:57:01;;;;;;;;;;;9.00;99.90;;;;;;4943509;28;20009;-84
2021/12/15 10:59:28;;;;;;;;;;;9.10;99.90;;;;;;4962950;28;20417;-83
2021/12/15 11:01:53;;;;;;;;;;;9.10;99.90;;;;;;4964617;28;20009;-84
2021/12/15 11:04:21;;;;;;;;;;;9.10;99.90;;;;;;4937553;28;20305;-83
2021/12/15 11:07:00;;;;;;;;;;;9.10;99.90;;;;;;4946573;28;19918;-83
2021/12/15 11:09:25;;;;;;;;;;;9.10;99.90;;;;;;4946270;28;20274;-84
2021/12/15 11:11:55;;;;;;;;;;;9.20;99.90;;;;;;4963732;28;19914;-85
2021/12/15 11:14:26;;;;;;;;;;;9.20;99.90;;;;;;4962818;28;19925;-84
2021/12/15 11:17:02;;;;;;;;;;;9.20;99.90;;;;;;4946459;28;19914;-84
2021/12/15 11:19:42;;;;;;;;;;;9.30;99.90;;;;;;4945367;28;19973;-84
2021/12/15 11:22:26;;;;;;;;;;;9.30;99.90;;;;;;4963291;28;19946;-83
2021/12/15 11:24:52;;;;;;;;;;;9.30;99.90;;;;;;4962290;28;19919;-83
2021/12/15 11:27:18;;;;;;;;;;;9.30;99.90;;;;;;4946359;28;20004;-83
2021/12/15 11:29:44;;;;;;;;;;;9.30;99.90;;;;;;4947322;28;19943;-84
2021/12/15 11:32:30;;;;;;;;;;;9.40;99.90;;;;;;4961560;28;19918;-84
2021/12/15 11:35:10;;;;;;;;;;;9.40;99.90;;;;;;4941820;28;20440;-85
2021/12/15 11:38:02;;;;;;;;;;;9.50;99.90;;;;;;4946656;28;20354;-86
2021/12/15 11:40:47;;;;;;;;;;;9.60;99.90;;;;;;4917894;28;20538;-86
2021/12/15 11:43:32;;;;;;;;;;;9.60;99.90;;;;;;4940385;28;20467;-86
2021/12/15 11:45:58;;;;;;;;;;;9.60;99.90;;;;;;4939455;28;19918;-86
2021/12/15 11:48:29;;;;;;;;;;;9.70;99.90;;;;;;4945736;28;20645;-86
2021/12/15 11:50:58;;;;;;;;;;;9.80;99.90;;;;;;4961207;28;20389;-85
2021/12/15 11:53:30;;;;;;;;;;;9.90;99.90;;;;;;4943318;29;19918;-85
2021/12/15 11:56:11;;;;;;;;;;;9.90;99.90;;;;;;4936238;28;19950;-85
2021/12/15 11:58:36;;;;;;;;;;;9.90;99.90;;;;;;4962498;28;19996;-83
2021/12/15 12:01:02;;;;;;;;;;;9.90;99.90;;;;;;4941941;28;20753;-84
2021/12/15 12:03:28;;;;;;;;;;;9.90;99.90;;;;;;4945472;28;19914;-85
2021/12/15 12:05:53;;;;;;;;;;;9.90;99.90;;;;;;4948988;28;19925;-84
2021/12/15 12:08:19;;;;;;;;;;;9.90;99.90;;;;;;4941704;28;20270;-84
2021/12/15 12:10:49;;;;;;;;;;;9.90;99.90;;;;;;4947063;28;19964;-83
2021/12/15 12:13:28;;;;;;;;;;;9.90;99.90;;;;;;4949494;28;19976;-84
2021/12/15 12:15:58;;;;;;;;;;;9.90;99.90;;;;;;4943933;28;19975;-84
2021/12/15 12:18:25;;;;;;;;;;;9.80;99.90;;;;;;4964684;28;20160;-85
2021/12/15 12:20:56;;;;;;;;;;;9.90;99.90;;;;;;4942698;28;20053;-84
2021/12/15 12:23:23;;;;;;;;;;;9.90;99.90;;;;;;4945455;28;19925;-85
2021/12/15 12:25:50;;;;;;;;;;;9.90;99.90;;;;;;4945368;28;19950;-83
2021/12/15 12:28:17;;;;;;;;;;;10.00;99.90;;;;;;4963030;28;19914;-84
2021/12/15 12:30:44;;;;;;;;;;;10.00;99.90;;;;;;4935281;28;20289;-85
2021/12/15 12:33:12;;;;;;;;;;;10.00;99.90;;;;;;4962187;28;20227;-84
2021/12/15 12:36:03;;;;;;;;;;;10.10;99.90;;;;;;4962884;28;19926;-84
2021/12/15 12:38:29;;;;;;;;;;;10.00;99.90;;;;;;4955317;28;20013;-85
2021/12/15 12:40:57;;;;;;;;;;;10.00;99.90;;;;;;4945462;28;19918;-84
2021/12/15 12:43:26;;;;;;;;;;;10.10;99.90;;;;;;4963565;28;19918;-84
2021/12/15 12:45:53;;;;;;;;;;;10.00;99.90;;;;;;4945725;28;20599;-84
2021/12/15 12:48:33;;;;;;;;;;;10.00;99.90;;;;;;4963268;28;19929;-84
2021/12/15 12:59:35;;;;;;;;;;;9.90;99.90;;;;;;4962988;28;20050;-84
2021/12/15 13:02:04;;;;;;;;;;;9.90;99.90;;;;;;4942381;28;20009;-84
2021/12/15 13:04:36;;;;;;;;;;;9.90;99.90;;;;;;4945901;28;19925;-83
2021/12/15 13:07:02;;;;;;;;;;;9.80;99.90;;;;;;4945524;28;20627;-84
2021/12/15 13:09:41;;;;;;;;;;;9.80;99.90;;;;;;4962454;28;19925;-84
2021/12/15 13:12:17;;;;;;;;;;;9.80;99.90;;;;;;4950623;28;20021;-83
2021/12/15 13:14:42;;;;;;;;;;;9.80;99.90;;;;;;4945591;28;20369;-82
2021/12/15 13:17:19;;;;;;;;;;;9.80;99.90;;;;;;4961596;28;19922;-83
2021/12/15 13:19:44;;;;;;;;;;;9.80;99.90;;;;;;4943793;28;19938;-84
2021/12/15 13:30:25;;;;;;;;;;;9.80;99.90;;;;;;4959787;28;20004;-84
2021/12/15 13:32:50;;;;;;;;;;;9.80;99.90;;;;;;4958918;28;20262;-84
2021/12/15 13:35:26;;;;;;;;;;;9.80;99.90;;;;;;4933999;28;19930;-84
2021/12/15 13:37:59;;;;;;;;;;;9.80;99.90;;;;;;4940660;29;19918;-84
2021/12/15 13:40:43;;;;;;;;;;;9.80;99.90;;;;;;4939587;28;20117;-83
2021/12/15 13:43:28;;;;;;;;;;;9.80;99.90;;;;;;4958246;28;20441;-85
2021/12/15 13:45:53;;;;;;;;;;;9.80;99.90;;;;;;4933178;28;19918;-84
2021/12/15 13:48:38;;;;;;;;;;;9.80;99.90;;;;;;4960020;28;19918;-84
2021/12/15 13:51:04;;;;;;;;;;;9.80;99.90;;;;;;4937721;28;19918;-84
2021/12/15 13:53:31;;;;;;;;;;;9.80;99.90;;;;;;4942305;28;20362;-84
2021/12/15 13:55:57;;;;;;;;;;;9.80;99.90;;;;;;4943790;28;19922;-83
2021/12/15 13:58:22;;;;;;;;;;;9.80;99.90;;;;;;4945121;28;19928;-85
2021/12/15 14:00:54;;;;;;;;;;;9.80;99.90;;;;;;4945392;28;19954;-83
2021/12/15 14:03:38;;;;;;;;;;;9.80;99.90;;;;;;4944911;28;19918;-85
2021/12/15 14:06:03;;;;;;;;;;;9.80;99.90;;;;;;4961081;28;20758;-85
2021/12/15 14:08:36;;;;;;;;;;;9.80;99.90;;;;;;4963284;28;19925;-85
2021/12/15 14:11:22;;;;;;;;;;;9.80;99.90;;;;;;4936602;28;19924;-84
2021/12/15 14:13:48;;;;;;;;;;;9.80;99.90;;;;;;4941000;28;19922;-84
2021/12/15 14:16:14;;;;;;;;;;;9.80;99.90;;;;;;4940428;28;20816;-83
2021/12/15 14:18:39;;;;;;;;;;;9.80;99.90;;;;;;4960945;28;19944;-84
2021/12/15 14:21:16;;;;;;;;;;;9.80;99.90;;;;;;4950355;28;19918;-83
2021/12/15 14:23:46;;;;;;;;;;;9.80;99.90;;;;;;4961752;28;20004;-84
2021/12/15 14:26:13;;;;;;;;;;;9.70;99.90;;;;;;4944442;28;19925;-84
2021/12/15 14:28:43;;;;;;;;;;;9.70;99.90;;;;;;4960526;28;20374;-85
2021/12/15 14:31:11;;;;;;;;;;;9.70;99.90;;;;;;4908703;28;19919;-86
2021/12/15 14:33:38;;;;;;;;;;;9.80;99.90;;;;;;4940112;28;20400;-83
2021/12/15 14:36:15;;;;;;;;;;;9.80;99.90;;;;;;4946281;28;19922;-84
2021/12/15 14:38:46;;;;;;;;;;;9.70;99.90;;;;;;4934354;28;19976;-84
2021/12/15 14:41:32;;;;;;;;;;;9.80;99.90;;;;;;4917504;28;20044;-85
2021/12/15 14:43:58;;;;;;;;;;;9.80;99.90;;;;;;4919637;28;20114;-85
2021/12/15 14:46:34;;;;;;;;;;;9.70;99.90;;;;;;4940247;28;19918;-84
2021/12/15 14:49:17;;;;;;;;;;;9.80;99.90;;;;;;4939412;28;20410;-83
2021/12/15 14:51:59;;;;;;;;;;;9.70;99.90;;;;;;4923300;28;20319;-87
2021/12/15 14:54:31;;;;;;;;;;;9.80;99.90;;;;;;4903493;28;19968;-88
2021/12/15 14:57:08;;;;;;;;;;;9.70;99.90;;;;;;4903314;28;21331;-86
2021/12/15 14:59:44;;;;;;;;;;;9.70;99.90;;;;;;4914620;28;19922;-86
2021/12/15 15:02:15;;;;;;;;;;;9.70;99.90;;;;;;4944810;28;19918;-90
2021/12/15 15:04:43;;;;;;;;;;;9.70;99.90;;;;;;4944908;28;19918;-88
2021/12/15 15:07:11;;;;;;;;;;;9.70;99.90;;;;;;4943017;28;19918;-88
2021/12/15 15:09:38;;;;;;;;;;;9.70;99.90;;;;;;4964027;28;20362;-87
2021/12/15 15:12:09;;;;;;;;;;;9.70;99.90;;;;;;4949290;28;19925;-84
2021/12/15 15:14:36;;;;;;;;;;;9.70;99.90;;;;;;4963917;28;19918;-85
2021/12/15 15:17:03;;;;;;;;;;;9.70;99.90;;;;;;4946453;28;20350;-84
2021/12/15 15:19:31;;;;;;;;;;;9.70;99.90;;;;;;4965362;28;19922;-86
2021/12/15 15:21:59;;;;;;;;;;;9.70;99.90;;;;;;4947590;28;20518;-86
2021/12/15 15:24:33;;;;;;;;;;;9.70;99.90;;;;;;4947474;28;19914;-87
2021/12/15 15:27:04;;;;;;;;;;;9.70;99.90;;;;;;4947659;28;19914;-86
2021/12/15 15:29:37;;;;;;;;;;;9.70;99.90;;;;;;4964344;28;19918;-85
2021/12/15 15:32:15;;;;;;;;;;;9.60;99.90;;;;;;4962299;28;20400;-84
2021/12/15 15:34:42;;;;;;;;;;;9.60;99.90;;;;;;4939511;28;19937;-84
2021/12/15 15:37:19;;;;;;;;;;;9.60;99.90;;;;;;4947334;28;19925;-84
2021/12/15 15:39:45;;;;;;;;;;;9.60;99.90;;;;;;4961114;28;20520;-84
2021/12/15 15:42:21;;;;;;;;;;;9.60;99.90;;;;;;4944776;28;19953;-84
2021/12/15 15:44:47;;;;;;;;;;;9.60;99.90;;;;;;4965456;28;19925;-85
2021/12/15 15:47:14;;;;;;;;;;;9.60;99.90;;;;;;4947359;28;19918;-83
2021/12/15 15:49:46;;;;;;;;;;;9.60;99.90;;;;;;4943398;28;19918;-84
2021/12/15 15:52:11;;;;;;;;;;;9.60;99.90;;;;;;4964788;28;20208;-85
2021/12/15 15:54:37;;;;;;;;;;;9.60;99.90;;;;;;4964789;28;19993;-83
2021/12/15 15:57:05;;;;;;;;;;;9.60;99.90;;;;;;4964505;28;19918;-84
2021/12/15 15:59:32;;;;;;;;;;;9.60;99.90;;;;;;4946853;28;20382;-84
2021/12/15 16:02:00;;;;;;;;;;;9.60;99.90;;;;;;4947144;28;19961;-84
2021/12/15 16:04:27;;;;;;;;;;;9.60;99.90;;;;;;4962783;28;19947;-84
2021/12/15 16:06:53;;;;;;;;;;;9.60;99.90;;;;;;4946758;28;19975;-84
2021/12/15 16:09:22;;;;;;;;;;;9.50;99.90;;;;;;4944289;28;19958;-84
2021/12/15 16:11:51;;;;;;;;;;;9.50;99.90;;;;;;4946927;28;19922;-84
2021/12/15 16:14:17;;;;;;;;;;;9.50;99.90;;;;;;4964424;28;20712;-83